Decoded Metar for KAXN (ALEXANDRIA in MN, USA) (IATA:AXN) | Meteo·Mobile Aviation Weather
aviador You're here:

KAXN Decoded Metar

ALEXANDRIA in MN, USA
Report Time2019-10-19 20:53:00
UTC Time2019-10-19 21:52:52
Flight Rules vfr VFR
Wind270° at 12 Gusting to 22 kt
W.Decomp.*RWY 31: 8.6 kt HW 8.3 kt LCW
RWY 22: 8.3 kt HW 8.6 kt RCW
Visibility9999 m
Phenomena:N/A
Clouds:N/A
Expected CloudBase > 6,800 ft AGL from Temp-Dew spread
CeilingNone
Temp16°C (ISA +4)
Dew Point-1°C (31% RH)
AAT9.5°C
QNH1004 hPa
Density Alt2,257 ft
Elevation1,421 ft
Report Wrong Elevation
Raw Report
KAXN 192053Z AUTO 27012G22KT 10SM CLR 16/M01 A2965 RMK AO2 SLP045
T01561011 56009=

Extra information for KAXN:More info

Metar Taf Metar & Taf Last 4 Metars F.Rules Stats Wind Profile Meteogram Temp Stats Airport Information Weather charts Add Link Nearby VenuesMetar ALERT Operation Metar Decoded Social comments

AIRNAV info for KAXN